Time;durP1;ratioP1;P1;durP2;ratioP2;P2;SDS_P1;SDS_P2;PMS_P1;PMS_P2;Temp;Humidity;BMP_temperature;BMP_pressure;BME280_temperature;BME280_humidity;BME280_pressure;Samples;Min_cycle;Max_cycle;Signal;HPM_P1;HPM_P2
2023/10/16 00:00:43;;;;;;;;;2.75;2.00;;;;;8.78;52.41;101581.53;5077513;27;45450;-80
2023/10/16 00:03:12;;;;;;;;;4.25;2.00;;;;;8.83;52.31;101600.78;5078125;27;45223;-80
2023/10/16 00:05:39;;;;;;;;;6.75;2.00;;;;;8.66;52.07;101579.28;5081463;27;45559;-80
2023/10/16 00:08:05;;;;;;;;;2.00;2.00;;;;;8.58;52.48;101570.69;5092746;27;45453;-81
2023/10/16 00:10:35;;;;;;;;;3.00;1.00;;;;;8.77;53.36;101608.97;5077901;27;45354;-82
2023/10/16 00:13:11;;;;;;;;;0.75;0.75;;;;;8.66;53.12;101589.00;5078473;27;45533;-82
2023/10/16 00:15:44;;;;;;;;;2.50;1.50;;;;;8.73;53.38;101606.47;5091728;27;46132;-81
2023/10/16 00:18:22;;;;;;;;;1.75;1.75;;;;;8.69;53.23;101612.78;5096810;27;45397;-82
2023/10/16 00:20:49;;;;;;;;;3.25;1.50;;;;;8.70;53.30;101602.09;5077362;27;45287;-80
2023/10/16 00:23:15;;;;;;;;;1.50;1.50;;;;;8.52;53.26;101576.19;5077771;28;45361;-80
2023/10/16 00:25:41;;;;;;;;;1.75;1.00;;;;;8.56;53.29;101584.00;5077383;27;45626;-80
2023/10/16 00:28:11;;;;;;;;;2.00;2.00;;;;;8.53;52.77;101583.22;5075242;27;45808;-83
2023/10/16 00:30:38;;;;;;;;;1.00;1.00;;;;;8.45;53.04;101570.19;5095010;27;45488;-83
2023/10/16 00:33:06;;;;;;;;;2.00;2.00;;;;;8.61;54.50;101602.44;5098457;27;45354;-81
2023/10/16 00:35:32;;;;;;;;;4.25;2.25;;;;;8.59;54.17;101604.22;5097775;27;46579;-82
2023/10/16 00:37:58;;;;;;;;;1.75;1.75;;;;;8.31;54.14;101551.19;5080510;27;45360;-85
2023/10/16 00:40:31;;;;;;;;;2.00;2.00;;;;;8.56;54.81;101591.06;5092261;27;45482;-84
2023/10/16 00:43:16;;;;;;;;;2.00;2.00;;;;;8.52;54.41;101586.81;5098099;27;45385;-81
2023/10/16 00:45:45;;;;;;;;;2.75;1.50;;;;;8.44;54.76;101572.91;5096249;27;47503;-80
2023/10/16 00:48:15;;;;;;;;;3.25;2.00;;;;;8.45;54.24;101585.25;5079489;27;45863;-85
2023/10/16 00:50:40;;;;;;;;;3.00;1.75;;;;;8.38;54.72;101570.47;5094539;27;45369;-84
2023/10/16 00:53:07;;;;;;;;;2.50;2.00;;;;;8.44;54.09;101583.50;5098768;27;45210;-85
2023/10/16 00:55:34;;;;;;;;;1.00;1.00;;;;;8.42;54.02;101586.22;5097928;27;47824;-85
2023/10/16 00:58:00;;;;;;;;;0.75;0.75;;;;;8.26;54.83;101564.59;5097590;27;45353;-85
2023/10/16 01:00:27;;;;;;;;;2.50;1.00;;;;;8.36;54.71;101580.25;5096253;27;45352;-80
2023/10/16 01:02:52;;;;;;;;;6.00;2.00;;;;;8.19;54.80;101568.34;5084617;27;45586;-79
2023/10/16 01:05:23;;;;;;;;;1.00;1.00;;;;;8.18;54.95;101561.28;5091743;27;45320;-79
2023/10/16 01:07:49;;;;;;;;;3.00;1.00;;;;;8.15;55.28;101564.06;5078937;27;45890;-80
2023/10/16 01:10:15;;;;;;;;;2.00;2.00;;;;;8.15;55.42;101564.06;5088149;27;45484;-81
2023/10/16 01:12:54;;;;;;;;;2.50;2.50;;;;;8.05;55.52;101565.22;5097344;27;45423;-79
2023/10/16 01:15:20;;;;;;;;;1.00;0.00;;;;;8.07;55.55;101563.41;5097627;27;46184;-85
2023/10/16 01:17:46;;;;;;;;;1.50;1.00;;;;;8.15;55.59;101561.41;5080546;27;45306;-85
2023/10/16 01:20:12;;;;;;;;;1.00;1.00;;;;;8.03;56.67;101556.47;5088368;27;45484;-83
2023/10/16 01:22:38;;;;;;;;;2.00;2.00;;;;;8.06;56.23;101564.31;5078421;28;45571;-85
2023/10/16 01:25:08;;;;;;;;;2.75;1.00;;;;;8.08;56.50;101570.47;5078402;27;45456;-84
2023/10/16 01:27:37;;;;;;;;;2.00;2.00;;;;;8.06;56.17;101564.31;5079166;27;45490;-85
2023/10/16 01:30:05;;;;;;;;;1.25;1.00;;;;;7.98;56.30;101553.97;5081422;27;45369;-82
2023/10/16 01:32:31;;;;;;;;;1.00;1.00;;;;;8.03;56.43;101556.47;5082449;27;45297;-86
2023/10/16 01:34:59;;;;;;;;;3.00;1.50;;;;;8.01;57.13;101558.31;5080611;27;45333;-84
2023/10/16 01:37:25;;;;;;;;;5.00;2.00;;;;;7.87;57.45;101539.31;5095203;27;45567;-84
2023/10/16 01:39:54;;;;;;;;;2.00;2.00;;;;;7.96;57.56;101549.63;5100721;27;45379;-85
2023/10/16 01:42:20;;;;;;;;;1.00;1.00;;;;;7.93;57.46;101547.94;5099073;27;45439;-86
2023/10/16 01:44:51;;;;;;;;;2.50;0.50;;;;;7.93;56.79;101547.06;5101118;27;45276;-82
2023/10/16 01:47:17;;;;;;;;;1.50;1.50;;;;;7.88;57.56;101525.16;5097536;27;45419;-81
2023/10/16 01:49:43;;;;;;;;;2.00;1.00;;;;;7.89;57.46;101541.00;5097506;27;45508;-82
2023/10/16 01:52:12;;;;;;;;;2.00;0.00;;;;;7.93;58.26;101545.28;5098803;27;45272;-83
2023/10/16 01:54:39;;;;;;;;;3.00;1.00;;;;;7.88;57.09;101535.75;5084422;27;46108;-84
2023/10/16 01:57:12;;;;;;;;;5.00;2.50;;;;;7.91;58.08;101546.25;5081333;27;45260;-84
2023/10/16 01:59:44;;;;;;;;;1.00;1.00;;;;;7.89;58.04;101537.47;5085430;27;45836;-85
2023/10/16 02:02:12;;;;;;;;;2.00;2.00;;;;;7.85;57.93;101536.72;5099111;27;45181;-82
2023/10/16 02:04:38;;;;;;;;;1.00;1.00;;;;;7.86;58.38;101526.97;5094490;27;46330;-81
2023/10/16 02:07:06;;;;;;;;;1.75;1.50;;;;;7.78;58.62;101502.50;5082690;27;45654;-80
2023/10/16 02:09:36;;;;;;;;;3.00;1.00;;;;;7.74;58.91;101501.72;5079837;27;45465;-80
2023/10/16 02:12:02;;;;;;;;;2.00;1.00;;;;;7.84;58.59;101512.94;5079797;28;45540;-80
2023/10/16 02:14:28;;;;;;;;;1.25;1.25;;;;;7.72;59.24;101492.09;5077449;27;46292;-83
2023/10/16 02:16:53;;;;;;;;;2.50;1.00;;;;;7.80;59.35;101516.56;5085823;27;47166;-80
2023/10/16 02:19:19;;;;;;;;;1.25;1.25;;;;;7.82;59.28;101509.47;5100233;27;45368;-81
2023/10/16 02:21:44;;;;;;;;;1.00;1.00;;;;;7.78;59.90;101513.09;5100402;27;45506;-81
2023/10/16 02:24:11;;;;;;;;;3.00;1.00;;;;;7.74;59.36;101506.16;5093374;27;45615;-83
2023/10/16 02:26:55;;;;;;;;;2.00;2.00;;;;;7.59;59.25;101489.81;5083902;27;45372;-83
2023/10/16 02:29:21;;;;;;;;;2.00;2.00;;;;;7.49;59.55;101458.38;5099799;27;45450;-80
2023/10/16 02:31:46;;;;;;;;;1.00;1.00;;;;;7.67;59.75;101490.44;5100334;27;45342;-85
2023/10/16 02:34:13;;;;;;;;;1.00;1.00;;;;;7.72;60.11;101502.69;5098593;27;56976;-80
2023/10/16 02:36:39;;;;;;;;;1.75;1.75;;;;;7.65;60.34;101481.69;5114338;27;46176;-83
2023/10/16 02:39:08;;;;;;;;;1.00;1.00;;;;;7.46;60.82;101459.31;5090306;27;45318;-82
2023/10/16 02:41:34;;;;;;;;;2.50;0.75;;;;;7.63;60.60;101496.75;5079498;27;45361;-82
2023/10/16 02:43:59;;;;;;;;;6.00;2.50;;;;;7.53;61.02;101481.19;5086834;27;48080;-81
2023/10/16 02:46:25;;;;;;;;;3.00;1.75;;;;;7.44;61.06;101468.22;5079516;27;46097;-79
2023/10/16 02:48:53;;;;;;;;;2.00;2.00;;;;;7.48;60.83;101473.38;5079275;27;45435;-82
2023/10/16 02:51:18;;;;;;;;;1.75;1.50;;;;;7.57;60.31;101489.00;5079488;27;45432;-84
2023/10/16 02:53:45;;;;;;;;;1.75;1.00;;;;;7.44;61.70;101484.97;5093847;27;46425;-84
2023/10/16 03:01:21;;;;;;;;;2.00;1.00;;;;;7.45;62.01;101494.66;5099864;27;45401;-80
2023/10/16 03:03:47;;;;;;;;;2.00;2.00;;;;;7.21;61.95;101460.94;5096779;27;45446;-81
2023/10/16 03:06:13;;;;;;;;;1.25;1.25;;;;;7.23;62.74;101469.69;5078739;28;45409;-80
2023/10/16 03:08:38;;;;;;;;;2.00;2.00;;;;;7.39;62.36;101489.50;5078687;28;45403;-78
2023/10/16 03:11:06;;;;;;;;;2.75;1.50;;;;;7.32;63.25;101499.41;5078858;28;45316;-78
2023/10/16 03:13:35;;;;;;;;;1.00;1.00;;;;;7.21;62.86;101468.88;5078091;28;45318;-78
2023/10/16 03:16:05;;;;;;;;;5.00;3.00;;;;;7.15;62.68;101469.03;5085668;27;45377;-79
2023/10/16 03:18:34;;;;;;;;;5.75;1.75;;;;;7.24;62.87;101484.66;5099096;27;45332;-81
2023/10/16 03:21:38;;;;;;;;;2.50;1.00;;;;;7.26;63.24;101488.13;5079074;27;45546;-79
2023/10/16 03:23:54;;;;;;;;;1.00;1.00;;;;;7.26;64.05;101488.13;5075984;28;46044;-79
2023/10/16 03:26:33;;;;;;;;;3.25;2.00;;;;;7.23;62.95;101483.78;5097029;27;45258;-80
2023/10/16 03:29:01;;;;;;;;;2.00;2.00;;;;;7.16;63.54;101476.06;5098940;27;45506;-81
2023/10/16 03:31:28;;;;;;;;;1.25;1.25;;;;;7.06;63.89;101465.75;5096049;27;45484;-80
2023/10/16 03:33:56;;;;;;;;;2.25;2.25;;;;;7.09;63.62;101463.00;5097692;27;46161;-80
2023/10/16 03:36:22;;;;;;;;;2.75;1.00;;;;;7.17;64.33;101473.41;5077406;27;45483;-80
2023/10/16 03:38:51;;;;;;;;;4.00;2.00;;;;;6.97;64.67;101447.50;5078533;27;45495;-80
2023/10/16 03:43:47;;;;;;;;;1.75;1.75;;;;;7.08;63.81;101463.06;5078346;27;45907;-79
2023/10/16 03:46:15;;;;;;;;;5.00;2.00;;;;;6.94;64.11;101444.06;5094484;27;45455;-79
2023/10/16 03:48:41;;;;;;;;;1.25;1.25;;;;;7.04;64.60;101475.50;5098373;27;45372;-79
2023/10/16 03:51:07;;;;;;;;;2.00;2.00;;;;;6.95;64.46;101457.25;5097928;27;45554;-79
2023/10/16 03:53:35;;;;;;;;;0.25;0.25;;;;;6.94;65.43;101452.88;5098307;27;45480;-79
2023/10/16 03:56:01;;;;;;;;;1.75;1.75;;;;;6.90;65.56;101453.88;5097271;27;45221;-80
2023/10/16 03:58:27;;;;;;;;;2.00;2.00;;;;;7.01;65.38;101472.94;5098289;27;45341;-80
2023/10/16 04:00:58;;;;;;;;;3.00;3.00;;;;;6.91;65.06;101468.81;5098412;27;45582;-79
2023/10/16 04:03:26;;;;;;;;;2.00;2.00;;;;;7.05;64.85;101479.91;5096301;27;46540;-80
2023/10/16 04:05:53;;;;;;;;;3.50;3.50;;;;;6.93;65.31;101448.50;5082864;27;45394;-79
2023/10/16 04:08:26;;;;;;;;;4.50;2.00;;;;;7.03;64.99;101471.13;5076531;28;45469;-81
2023/10/16 04:10:56;;;;;;;;;3.00;3.00;;;;;6.82;65.09;101447.91;5077871;27;45382;-80
2023/10/16 04:13:26;;;;;;;;;5.75;3.00;;;;;6.99;65.41;101487.97;5077613;27;45322;-79
2023/10/16 04:18:30;;;;;;;;;5.00;5.00;;;;;6.80;65.59;101442.66;5077464;27;45351;-81
2023/10/16 04:21:29;;;;;;;;;6.25;2.00;;;;;6.95;65.89;101478.41;5077604;27;45436;-82
2023/10/16 04:34:25;;;;;;;;;2.00;2.00;;;;;6.88;67.00;101466.25;5096450;27;45750;-80
2023/10/16 04:42:50;;;;;;;;;5.00;5.00;;;;;6.69;67.03;101426.22;5080124;27;45565;-80
2023/10/16 04:48:06;;;;;;;;;2.50;2.00;;;;;6.74;66.46;101432.25;5097408;27;45440;-80
2023/10/16 05:00:57;;;;;;;;;5.00;2.50;;;;;6.82;66.84;101424.13;5096174;27;45393;-80
2023/10/16 05:03:35;;;;;;;;;3.00;3.00;;;;;6.78;66.94;101406.59;5094973;27;45386;-80
2023/10/16 05:06:27;;;;;;;;;6.50;2.75;;;;;6.91;67.20;101434.44;5076244;27;46027;-80
2023/10/16 06:14:22;;;;;;;;;6.25;6.00;;;;;6.84;69.75;101438.16;5076502;28;45530;-79
2023/10/16 06:16:53;;;;;;;;;4.50;4.50;;;;;6.89;68.78;101440.66;5079639;27;45402;-81
2023/10/16 06:19:19;;;;;;;;;9.00;6.00;;;;;6.87;68.51;101432.78;5084705;27;45404;-81
2023/10/16 06:21:47;;;;;;;;;7.00;6.00;;;;;6.89;67.86;101435.38;5092504;27;45498;-80
2023/10/16 06:24:25;;;;;;;;;8.75;6.00;;;;;6.93;68.67;101432.63;5088233;27;46859;-81
2023/10/16 06:26:59;;;;;;;;;12.50;6.50;;;;;6.88;68.35;101410.72;5096184;27;45309;-80
2023/10/16 06:29:25;;;;;;;;;4.00;4.00;;;;;7.00;67.98;101428.88;5097854;27;45540;-82
2023/10/16 06:31:53;;;;;;;;;11.75;6.00;;;;;7.05;67.85;101431.41;5097000;27;45413;-82
2023/10/16 06:34:23;;;;;;;;;9.25;6.25;;;;;7.06;67.59;101426.09;5098982;27;45335;-80
2023/10/16 06:36:51;;;;;;;;;10.75;8.75;;;;;7.07;67.58;101419.00;5078810;27;45377;-80
2023/10/16 06:39:28;;;;;;;;;7.00;7.00;;;;;6.97;67.46;101410.47;5076514;27;45342;-80
2023/10/16 06:41:54;;;;;;;;;8.75;8.75;;;;;7.07;67.81;101427.81;5075937;28;45659;-80
2023/10/16 06:44:21;;;;;;;;;10.00;7.25;;;;;6.63;68.02;101362.94;5078247;27;45374;-80
2023/10/16 06:46:49;;;;;;;;;8.75;8.50;;;;;6.84;67.64;101384.41;5085733;27;45507;-80
2023/10/16 06:49:16;;;;;;;;;6.75;5.00;;;;;7.07;67.22;101419.00;5099686;27;45537;-81
2023/10/16 06:51:44;;;;;;;;;10.00;8.25;;;;;7.12;67.30;101413.56;5090533;27;46618;-80
2023/10/16 06:54:10;;;;;;;;;12.75;10.00;;;;;7.11;66.65;101402.13;5085922;27;45360;-80
2023/10/16 06:56:38;;;;;;;;;6.00;6.00;;;;;7.30;66.57;101431.59;5087382;27;45460;-83
2023/10/16 06:59:04;;;;;;;;;6.00;5.75;;;;;7.30;66.72;101432.44;5088003;28;45492;-80
2023/10/16 07:01:29;;;;;;;;;11.00;8.25;;;;;7.32;67.33;101440.34;5100906;27;46519;-82
2023/10/16 07:03:54;;;;;;;;;10.00;9.50;;;;;7.29;67.33;101424.53;5080199;27;45505;-79
2023/10/16 07:06:32;;;;;;;;;6.25;6.25;;;;;7.31;66.91;101415.66;5083675;27;51045;-83
2023/10/16 07:09:00;;;;;;;;;5.50;5.25;;;;;7.27;67.17;101421.94;5086738;27;45461;-81
2023/10/16 07:11:27;;;;;;;;;6.25;3.00;;;;;7.24;67.40;101411.44;5084438;27;46206;-80
2023/10/16 07:13:52;;;;;;;;;7.75;5.50;;;;;7.24;66.94;101408.81;5095748;27;45688;-80
2023/10/16 07:16:19;;;;;;;;;8.25;8.25;;;;;7.20;66.94;101393.06;5084280;27;45623;-79
2023/10/16 07:18:44;;;;;;;;;10.50;10.50;;;;;7.33;67.21;101420.91;5082182;27;45443;-81
2023/10/16 07:21:10;;;;;;;;;10.00;7.75;;;;;7.27;67.04;101384.03;5099318;27;45490;-80
2023/10/16 07:23:37;;;;;;;;;11.50;8.25;;;;;7.44;66.64;101400.28;5090530;27;45403;-81
2023/10/16 07:26:03;;;;;;;;;11.00;11.00;;;;;7.51;66.89;101415.06;5082508;27;45274;-79
2023/10/16 07:28:30;;;;;;;;;8.75;8.25;;;;;7.55;66.96;101416.72;5101618;27;45349;-83
2023/10/16 07:30:56;;;;;;;;;11.00;10.00;;;;;7.43;66.53;101401.19;5098190;27;47515;-81
2023/10/16 07:33:22;;;;;;;;;10.50;7.00;;;;;7.54;66.43;101412.31;5099519;27;45321;-80
2023/10/16 07:35:50;;;;;;;;;12.75;10.00;;;;;7.56;66.72;101429.03;5089434;27;45548;-79
2023/10/16 07:38:20;;;;;;;;;6.75;3.50;;;;;7.36;66.37;101381.13;5079331;27;45570;-79
2023/10/16 07:41:09;;;;;;;;;5.75;5.00;;;;;7.66;66.26;101419.00;5079196;27;46190;-78
2023/10/16 07:43:36;;;;;;;;;7.75;5.50;;;;;7.75;65.72;101428.47;5079629;27;45480;-79
2023/10/16 07:46:17;;;;;;;;;6.50;5.75;;;;;7.79;65.51;101430.94;5090080;27;45421;-80
2023/10/16 07:48:45;;;;;;;;;7.50;6.00;;;;;7.92;64.94;101428.78;5078412;27;45352;-81
2023/10/16 07:51:18;;;;;;;;;10.50;6.00;;;;;7.98;64.30;101425.97;5083705;27;46307;-81
2023/10/16 07:53:43;;;;;;;;;8.00;5.75;;;;;7.95;64.31;101410.16;5095105;27;45478;-81
2023/10/16 07:58:52;;;;;;;;;5.75;5.75;;;;;8.20;63.33;101419.06;5099550;27;45195;-79
2023/10/16 08:02:08;;;;;;;;;6.00;6.00;;;;;8.31;63.10;101433.72;5103629;27;45335;-81
2023/10/16 08:04:06;;;;;;;;;6.25;4.75;;;;;8.33;63.08;101426.56;5088416;27;45299;-81
2023/10/16 08:06:39;;;;;;;;;6.00;5.75;;;;;8.40;62.30;101430.78;5085954;27;45581;-81
2023/10/16 08:11:59;;;;;;;;;7.00;6.00;;;;;8.54;62.64;101416.16;5087964;27;45391;-82
2023/10/16 08:14:26;;;;;;;;;7.50;5.50;;;;;8.57;61.77;101410.72;5098621;27;45320;-80
2023/10/16 08:16:58;;;;;;;;;4.25;3.50;;;;;8.64;61.74;101408.75;5098439;27;45385;-81
2023/10/16 08:19:24;;;;;;;;;4.75;4.75;;;;;8.55;61.35;101358.69;5099326;27;45358;-80
2023/10/16 08:21:50;;;;;;;;;6.00;6.00;;;;;8.73;61.55;101379.25;5104625;27;46376;-79
2023/10/16 08:24:16;;;;;;;;;2.00;2.00;;;;;8.95;60.80;101407.66;5095818;27;45283;-79
2023/10/16 08:26:45;;;;;;;;;6.50;6.50;;;;;9.01;60.59;101407.44;5099570;27;45488;-81
2023/10/16 08:31:42;;;;;;;;;10.75;6.00;;;;;9.14;60.62;101392.78;5087200;27;46198;-81
2023/10/16 08:34:34;;;;;;;;;4.25;3.00;;;;;9.14;60.37;101390.16;5080825;27;45337;-80
2023/10/16 08:37:03;;;;;;;;;7.25;6.50;;;;;8.99;60.06;101353.56;5080296;27;45416;-82
2023/10/16 08:39:29;;;;;;;;;6.25;4.50;;;;;9.24;59.66;101388.84;5090491;27;45953;-81
2023/10/16 08:42:01;;;;;;;;;3.00;3.00;;;;;9.33;60.05;101387.66;5086163;27;46091;-81
2023/10/16 08:44:28;;;;;;;;;3.75;3.75;;;;;9.32;59.97;101376.16;5090233;27;45427;-80
2023/10/16 08:49:24;;;;;;;;;6.00;6.00;;;;;9.40;59.50;101376.75;5098181;27;45389;-80
2023/10/16 08:52:04;;;;;;;;;6.75;4.50;;;;;9.45;58.49;101368.59;5087406;27;45439;-78
2023/10/16 08:54:53;;;;;;;;;6.25;4.00;;;;;9.55;58.87;101374.41;5087668;27;45242;-80
2023/10/16 08:57:20;;;;;;;;;8.25;8.25;;;;;9.50;58.80;101350.69;5078523;28;45448;-80
2023/10/16 08:59:50;;;;;;;;;7.25;5.50;;;;;9.62;58.43;101362.59;5087152;27;45394;-80
2023/10/16 09:02:17;;;;;;;;;6.50;3.75;;;;;9.57;58.81;101356.63;5079683;27;45306;-79
2023/10/16 09:04:44;;;;;;;;;7.25;6.00;;;;;9.57;58.74;101343.34;5078712;27;45461;-80
2023/10/16 09:07:12;;;;;;;;;6.00;3.75;;;;;9.59;58.19;101345.00;5080521;27;45274;-82
2023/10/16 09:09:41;;;;;;;;;4.50;4.50;;;;;9.50;59.18;101340.06;5081301;27;45241;-79
2023/10/16 09:12:10;;;;;;;;;4.50;4.50;;;;;9.62;58.65;101344.00;5079861;27;45334;-83
2023/10/16 09:14:40;;;;;;;;;9.25;7.00;;;;;9.66;58.98;101356.28;5085806;27;45433;-79
2023/10/16 09:17:08;;;;;;;;;6.00;6.00;;;;;9.70;59.16;101345.44;5078778;27;45254;-80
2023/10/16 09:19:34;;;;;;;;;6.25;6.00;;;;;9.71;58.42;101348.97;5078485;27;45275;-79
2023/10/16 09:22:09;;;;;;;;;10.00;6.75;;;;;9.82;58.45;101340.56;5080775;27;45985;-80
2023/10/16 09:24:35;;;;;;;;;5.50;5.50;;;;;9.88;58.17;101341.16;5098041;27;45405;-78
2023/10/16 09:27:11;;;;;;;;;7.50;6.00;;;;;9.88;57.48;101325.22;5084328;27;45487;-79
2023/10/16 09:29:36;;;;;;;;;3.50;3.50;;;;;10.11;57.90;101336.69;5097564;27;45343;-81
2023/10/16 09:32:06;;;;;;;;;4.75;4.75;;;;;9.68;57.36;101258.78;5097661;27;45429;-79
2023/10/16 09:34:34;;;;;;;;;8.00;7.75;;;;;10.11;57.43;101299.47;5080720;27;45329;-84
2023/10/16 09:39:48;;;;;;;;;4.00;4.00;;;;;10.47;57.15;101328.97;5084653;27;45458;-80
2023/10/16 09:42:14;;;;;;;;;7.50;4.00;;;;;10.54;56.79;101325.09;5077342;27;46156;-81
2023/10/16 09:44:59;;;;;;;;;7.25;6.00;;;;;10.57;56.49;101309.88;5078510;27;45454;-83
2023/10/16 09:47:25;;;;;;;;;8.00;4.25;;;;;10.70;56.23;101310.19;5077144;27;45843;-77
2023/10/16 09:49:53;;;;;;;;;5.50;5.50;;;;;10.62;55.51;101286.59;5080522;27;45306;-81
2023/10/16 09:52:20;;;;;;;;;6.00;3.50;;;;;10.80;56.11;101305.31;5097072;27;45430;-81
2023/10/16 09:54:48;;;;;;;;;7.50;5.00;;;;;10.91;55.56;101317.19;5098876;27;45381;-80
2023/10/16 09:57:18;;;;;;;;;3.75;2.00;;;;;10.88;55.52;101292.53;5093514;27;45263;-81
2023/10/16 09:59:44;;;;;;;;;5.50;5.25;;;;;11.03;54.91;101297.13;5079566;28;45463;-81
2023/10/16 10:02:18;;;;;;;;;7.25;2.75;;;;;11.09;54.93;101291.53;5089371;27;52237;-82
2023/10/16 10:04:53;;;;;;;;;4.75;4.75;;;;;11.25;54.31;101296.13;5100613;27;45913;-79
2023/10/16 10:07:22;;;;;;;;;8.75;7.00;;;;;11.25;54.30;101269.50;5095482;27;45409;-80
2023/10/16 10:09:53;;;;;;;;;11.75;6.50;;;;;11.49;54.09;101289.63;5081065;27;45535;-79
2023/10/16 10:12:47;;;;;;;;;8.00;7.00;;;;;11.77;53.85;101297.97;5083848;27;45510;-82
2023/10/16 10:15:20;;;;;;;;;8.00;4.00;;;;;11.90;52.90;101281.41;5079336;28;45365;-79
2023/10/16 10:17:55;;;;;;;;;3.50;3.50;;;;;11.93;52.30;101273.25;5080046;27;45383;-81
2023/10/16 10:20:39;;;;;;;;;4.25;4.25;;;;;12.08;51.76;101273.31;5077878;27;45215;-85
2023/10/16 10:23:06;;;;;;;;;3.00;3.00;;;;;12.29;51.83;101268.69;5087536;27;46598;-84
2023/10/16 10:25:40;;;;;;;;;9.75;9.00;;;;;12.47;50.28;101256.19;5082463;27;45302;-81
2023/10/16 10:28:38;;;;;;;;;12.25;8.75;;;;;12.55;50.98;101261.13;5083270;27;45254;-81
2023/10/16 10:31:05;;;;;;;;;5.25;4.00;;;;;12.59;50.00;101265.34;5072689;28;45390;-81
2023/10/16 10:33:52;;;;;;;;;8.00;8.00;;;;;12.65;49.22;101236.53;5080536;28;45378;-82
2023/10/16 10:36:27;;;;;;;;;3.00;3.00;;;;;12.87;49.28;101257.53;5080526;28;45441;-79
2023/10/16 10:42:10;;;;;;;;;4.25;4.00;;;;;13.00;48.83;101239.03;5086158;27;46881;-80
2023/10/16 10:44:44;;;;;;;;;3.75;3.50;;;;;13.16;48.03;101241.75;5092840;27;47267;-81
2023/10/16 10:47:30;;;;;;;;;4.50;4.50;;;;;13.31;47.70;101226.69;5093317;27;45317;-84
2023/10/16 10:50:00;;;;;;;;;5.25;4.75;;;;;13.51;47.35;101226.38;5089922;27;45591;-80
2023/10/16 10:52:31;;;;;;;;;5.00;5.00;;;;;13.69;47.13;101219.97;5081736;27;45358;-84
2023/10/16 10:55:07;;;;;;;;;2.00;2.00;;;;;13.87;46.71;101210.84;5100675;27;45225;-81
2023/10/16 10:57:34;;;;;;;;;5.00;3.50;;;;;14.02;46.17;101226.91;5085845;27;45270;-83
2023/10/16 11:00:22;;;;;;;;;5.00;5.00;;;;;14.14;45.10;101229.72;5083374;27;45220;-83
2023/10/16 11:02:52;;;;;;;;;3.00;3.00;;;;;14.38;44.79;101234.53;5101359;27;45382;-84
2023/10/16 11:05:24;;;;;;;;;13.00;5.00;;;;;14.58;44.51;101218.09;5101830;27;45542;-81
2023/10/16 11:10:33;;;;;;;;;5.00;5.00;;;;;15.16;44.31;101210.84;5100501;27;45403;-83
2023/10/16 11:13:03;;;;;;;;;5.00;4.00;;;;;15.20;43.15;101218.56;5101837;27;45432;-81
2023/10/16 11:15:30;;;;;;;;;4.00;4.00;;;;;15.26;44.03;101207.47;5101585;27;45417;-82
2023/10/16 11:18:05;;;;;;;;;3.33;3.33;;;;;15.38;42.50;101204.94;5088683;27;45553;-81
2023/10/16 11:20:31;;;;;;;;;3.67;3.00;;;;;15.48;41.98;101200.66;5079536;27;45415;-81
2023/10/16 11:22:58;;;;;;;;;4.33;3.00;;;;;15.53;42.77;101194.06;5077785;28;45502;-81
2023/10/16 11:25:28;;;;;;;;;6.00;4.00;;;;;15.54;42.86;101179.69;5081696;27;45488;-82
2023/10/16 11:27:57;;;;;;;;;5.00;4.00;;;;;15.63;42.53;101180.94;5087101;27;46193;-81
2023/10/16 11:30:30;;;;;;;;;5.67;3.00;;;;;15.41;42.11;101156.50;5082334;27;46967;-81
2023/10/16 11:32:55;;;;;;;;;8.00;4.00;;;;;15.38;41.83;101162.91;5079906;27;45452;-79
2023/10/16 11:35:21;;;;;;;;;3.00;3.00;;;;;15.26;41.88;101155.69;5080492;27;52780;-82
2023/10/16 11:37:55;;;;;;;;;3.00;3.00;;;;;15.24;42.10;101161.16;5092315;27;45424;-79
2023/10/16 11:40:32;;;;;;;;;4.00;4.00;;;;;15.18;42.03;101153.50;5080699;27;45451;-78
2023/10/16 11:43:01;;;;;;;;;2.33;2.33;;;;;15.24;41.85;101150.44;5090404;27;45392;-82
2023/10/16 11:45:30;;;;;;;;;2.00;2.00;;;;;15.28;41.38;101125.16;5097630;27;45360;-87
2023/10/16 11:50:40;;;;;;;;;2.33;2.33;;;;;15.51;41.30;101103.97;5078546;27;45337;-82
2023/10/16 11:53:07;;;;;;;;;3.00;3.00;;;;;15.67;40.98;101110.03;5078877;27;45415;-84
2023/10/16 11:55:37;;;;;;;;;3.00;3.00;;;;;15.87;40.67;101133.63;5080996;27;46187;-80
2023/10/16 11:58:11;;;;;;;;;2.00;2.00;;;;;16.04;40.17;101139.66;5090166;27;45485;-86
2023/10/16 12:00:42;;;;;;;;;4.00;4.00;;;;;16.28;39.53;101119.16;5094094;27;45240;-80
2023/10/16 12:03:14;;;;;;;;;4.67;3.33;;;;;16.69;39.66;101083.09;5083890;28;45498;-80
2023/10/16 12:05:42;;;;;;;;;2.67;2.00;;;;;17.07;38.11;101099.91;5079955;28;48080;-79
2023/10/16 12:08:08;;;;;;;;;2.00;2.00;;;;;17.23;37.22;101091.53;5079395;27;45530;-80
2023/10/16 12:10:35;;;;;;;;;3.67;2.00;;;;;17.46;37.39;101076.34;5085720;27;45398;-79
2023/10/16 12:13:03;;;;;;;;;2.00;2.00;;;;;17.70;37.32;101070.88;5079646;28;45319;-80
2023/10/16 12:15:28;;;;;;;;;4.00;4.00;;;;;17.94;36.64;101068.09;5080728;27;46210;-81
2023/10/16 12:17:55;;;;;;;;;0.00;0.00;;;;;17.94;36.12;101068.97;5103013;27;45313;-79
2023/10/16 12:20:21;;;;;;;;;2.00;2.00;;;;;17.87;35.66;101065.06;5102720;27;45352;-81
2023/10/16 12:22:48;;;;;;;;;3.00;1.67;;;;;17.75;35.20;101067.84;5088371;27;45589;-82
2023/10/16 12:25:13;;;;;;;;;1.00;1.00;;;;;17.85;35.69;101075.09;5079453;27;45288;-82
2023/10/16 12:27:39;;;;;;;;;2.00;2.00;;;;;17.91;35.66;101073.75;5082519;27;45306;-81
2023/10/16 12:30:05;;;;;;;;;1.00;1.00;;;;;18.12;35.66;101061.28;5084111;27;45503;-81
2023/10/16 12:32:32;;;;;;;;;2.00;1.00;;;;;18.35;34.36;101067.47;5079625;27;45604;-79
2023/10/16 12:35:00;;;;;;;;;0.00;0.00;;;;;18.41;34.61;101068.81;5079439;27;46173;-81
2023/10/16 12:37:27;;;;;;;;;6.00;6.00;;;;;18.38;33.59;101047.53;5080419;27;45743;-81
2023/10/16 12:39:54;;;;;;;;;3.00;1.67;;;;;18.70;33.35;101061.94;5078651;27;45503;-81
2023/10/16 12:42:20;;;;;;;;;2.00;2.00;;;;;19.07;33.68;101046.25;5078266;27;45678;-82
2023/10/16 12:44:45;;;;;;;;;2.00;2.00;;;;;18.91;32.95;101021.56;5077717;27;45353;-80
2023/10/16 12:47:14;;;;;;;;;4.00;3.00;;;;;19.07;32.88;101034.59;5076218;27;45255;-80
2023/10/16 12:49:39;;;;;;;;;1.00;1.00;;;;;19.13;32.30;101036.78;5077456;27;45474;-83
2023/10/16 12:52:05;;;;;;;;;2.67;1.00;;;;;18.85;31.82;101031.00;5089727;27;45479;-82
2023/10/16 12:54:30;;;;;;;;;1.00;1.00;;;;;18.21;32.67;101032.72;5094065;27;46170;-81
2023/10/16 12:56:57;;;;;;;;;2.00;2.00;;;;;17.66;33.79;101032.59;5098153;27;45401;-81
2023/10/16 12:59:25;;;;;;;;;2.00;2.00;;;;;17.34;34.62;101031.56;5085491;27;45420;-77
2023/10/16 13:01:52;;;;;;;;;4.00;1.00;;;;;17.02;34.75;101034.88;5099068;27;45351;-82
2023/10/16 13:04:17;;;;;;;;;3.00;1.00;;;;;16.65;35.50;101011.72;5099202;27;46267;-80
2023/10/16 13:06:43;;;;;;;;;2.00;2.00;;;;;16.34;36.20;100987.16;5098322;27;45261;-80
2023/10/16 13:09:15;;;;;;;;;1.67;1.00;;;;;16.26;36.01;101002.09;5093830;27;45374;-81
2023/10/16 13:11:41;;;;;;;;;1.00;1.00;;;;;16.08;36.20;101025.78;5076695;28;45394;-81
2023/10/16 13:14:06;;;;;;;;;1.00;1.00;;;;;15.75;36.47;101008.44;5080458;27;45599;-80
2023/10/16 13:16:33;;;;;;;;;0.00;0.00;;;;;15.60;36.71;101014.88;5087593;27;45944;-79
2023/10/16 13:18:59;;;;;;;;;1.67;1.67;;;;;15.65;36.64;101025.31;5097927;27;45440;-81
2023/10/16 13:21:35;;;;;;;;;0.67;0.67;;;;;15.51;36.90;101018.19;5097648;27;45381;-81
2023/10/16 13:24:09;;;;;;;;;1.67;1.00;;;;;15.47;36.80;101016.69;5097501;27;45334;-80
2023/10/16 13:26:37;;;;;;;;;1.00;1.00;;;;;15.45;36.92;100999.84;5097113;27;45379;-79
2023/10/16 13:29:13;;;;;;;;;1.00;1.00;;;;;15.34;37.30;101006.81;5097567;27;45392;-82
2023/10/16 13:31:40;;;;;;;;;0.67;0.67;;;;;15.20;37.82;100988.16;5090641;27;45395;-83
2023/10/16 13:34:10;;;;;;;;;1.00;1.00;;;;;15.08;38.01;100991.66;5098393;27;47410;-82
2023/10/16 13:37:28;;;;;;;;;1.00;1.00;;;;;15.00;38.36;100986.84;5099227;27;45562;-83
2023/10/16 13:39:41;;;;;;;;;1.67;1.00;;;;;15.02;38.45;101005.50;5076972;27;45365;-82
2023/10/16 13:42:08;;;;;;;;;0.67;0.67;;;;;14.34;38.01;100928.81;5093667;27;45657;-83
2023/10/16 13:44:37;;;;;;;;;0.00;0.00;;;;;14.49;38.10;100968.94;5096471;27;45471;-82
2023/10/16 13:47:08;;;;;;;;;1.00;1.00;;;;;14.54;38.31;100993.56;5077982;27;45517;-83